createdAt,value
2023-04-08T00:00:28.156Z,22.08
2023-04-08T00:02:54.949Z,23.40
2023-04-08T00:05:21.904Z,21.08
2023-04-08T00:07:48.743Z,22.20
2023-04-08T00:10:15.502Z,21.90
2023-04-08T00:12:42.191Z,23.38
2023-04-08T00:15:09.265Z,22.60
2023-04-08T00:17:36.450Z,22.75
2023-04-08T00:20:03.499Z,25.02
2023-04-08T00:22:30.305Z,23.25
2023-04-08T00:24:58.130Z,24.02
2023-04-08T00:27:27.577Z,22.88
2023-04-08T00:29:54.378Z,22.52
2023-04-08T00:32:21.576Z,21.58
2023-04-08T00:34:49.453Z,22.05
2023-04-08T00:37:16.137Z,21.98
2023-04-08T00:39:42.860Z,20.85
2023-04-08T00:42:09.857Z,21.30
2023-04-08T00:44:37.017Z,23.27
2023-04-08T00:47:04.374Z,23.52
2023-04-08T00:49:32.052Z,22.45
2023-04-08T00:51:59.756Z,22.02
2023-04-08T00:54:26.500Z,23.80
2023-04-08T00:56:53.247Z,23.60
2023-04-08T00:59:20.188Z,25.10
2023-04-08T01:02:07.225Z,24.80
2023-04-08T01:04:43.792Z,24.92
2023-04-08T01:07:17.989Z,24.13
2023-04-08T01:09:55.368Z,23.88
2023-04-08T01:12:31.646Z,24.83
2023-04-08T01:15:03.627Z,25.27
2023-04-08T01:17:32.118Z,25.85
2023-04-08T01:20:01.811Z,26.65
2023-04-08T01:22:43.967Z,25.83
2023-04-08T01:25:17.342Z,25.70
2023-04-08T01:27:45.691Z,25.67
2023-04-08T01:30:13.637Z,27.20
2023-04-08T01:32:42.171Z,28.45
2023-04-08T01:35:10.471Z,28.55
2023-04-08T01:37:38.706Z,29.48
2023-04-08T01:40:07.986Z,28.90
2023-04-08T01:42:36.695Z,31.02
2023-04-08T01:45:06.196Z,30.25
2023-04-08T01:47:35.045Z,30.65
2023-04-08T01:50:03.305Z,30.95
2023-04-08T01:52:30.840Z,32.03
2023-04-08T01:54:57.708Z,33.20
2023-04-08T01:57:28.665Z,31.77
2023-04-08T02:00:01.711Z,31.15
2023-04-08T02:02:29.667Z,30.08
2023-04-08T02:04:56.535Z,30.63
2023-04-08T02:07:23.755Z,29.08
2023-04-08T02:09:51.439Z,28.00
2023-04-08T02:12:18.682Z,28.38
2023-04-08T02:14:46.231Z,30.90
2023-04-08T02:17:14.127Z,28.55
2023-04-08T02:19:46.635Z,29.23
2023-04-08T02:22:38.443Z,28.27
2023-04-08T02:25:09.336Z,29.90
2023-04-08T02:27:37.415Z,30.50
2023-04-08T02:30:05.755Z,30.42
2023-04-08T02:32:33.982Z,29.60
2023-04-08T02:35:03.832Z,31.17
2023-04-08T02:37:31.505Z,30.77
2023-04-08T02:39:58.712Z,31.75
2023-04-08T02:42:25.797Z,33.03
2023-04-08T02:44:52.616Z,33.53
2023-04-08T02:47:19.449Z,33.22
2023-04-08T02:49:46.364Z,32.20
2023-04-08T02:52:13.105Z,34.05
2023-04-08T02:54:39.806Z,33.50
2023-04-08T02:57:06.483Z,34.65
2023-04-08T02:59:33.214Z,32.63
2023-04-08T03:02:00.034Z,34.67
2023-04-08T03:04:27.296Z,35.60
2023-04-08T03:06:54.087Z,31.63
2023-04-08T03:09:20.923Z,33.45
2023-04-08T03:11:53.115Z,33.33
2023-04-08T03:14:20.294Z,34.08
2023-04-08T03:16:47.037Z,33.25
2023-04-08T03:19:13.809Z,34.00
2023-04-08T03:21:40.483Z,35.45
2023-04-08T03:24:07.350Z,33.95
2023-04-08T03:26:34.105Z,34.05
2023-04-08T03:29:01.192Z,30.77
2023-04-08T03:31:28.059Z,34.47
2023-04-08T03:33:54.820Z,32.40
2023-04-08T03:36:21.509Z,31.73
2023-04-08T03:38:48.441Z,32.08
2023-04-08T03:41:15.444Z,33.22
2023-04-08T03:43:42.213Z,31.42
2023-04-08T03:46:08.988Z,32.38
2023-04-08T03:48:35.728Z,31.38
2023-04-08T03:51:02.432Z,30.83
2023-04-08T03:53:29.484Z,34.97
2023-04-08T03:55:57.246Z,31.83
2023-04-08T03:58:24.153Z,33.13
2023-04-08T04:00:51.489Z,31.67
2023-04-08T04:03:18.631Z,32.67
2023-04-08T04:05:45.581Z,33.22
2023-04-08T04:08:12.391Z,33.92
2023-04-08T04:10:39.052Z,34.65
2023-04-08T04:13:05.900Z,33.55
2023-04-08T04:15:32.780Z,33.20
2023-04-08T04:17:59.635Z,32.03
2023-04-08T04:20:26.537Z,34.88
2023-04-08T04:22:53.266Z,34.45
2023-04-08T04:25:20.315Z,36.00
2023-04-08T04:27:47.000Z,34.63
2023-04-08T04:30:15.657Z,32.83
2023-04-08T04:32:43.151Z,34.60
2023-04-08T04:35:13.150Z,34.85
2023-04-08T04:37:39.914Z,37.15
2023-04-08T04:40:07.651Z,34.20
2023-04-08T04:42:34.498Z,35.97
2023-04-08T04:45:01.328Z,37.95
2023-04-08T04:47:28.137Z,36.25
2023-04-08T04:49:54.877Z,36.58
2023-04-08T04:52:21.552Z,37.30
2023-04-08T04:54:48.263Z,38.08
2023-04-08T04:57:15.089Z,38.45
2023-04-08T04:59:41.852Z,37.83
2023-04-08T05:02:08.705Z,38.95
2023-04-08T05:04:36.067Z,38.00
2023-04-08T05:07:02.839Z,37.45
2023-04-08T05:09:29.818Z,38.38
2023-04-08T05:11:56.723Z,38.83
2023-04-08T05:14:23.604Z,40.35
2023-04-08T05:16:50.376Z,39.92
2023-04-08T05:19:17.039Z,39.17
2023-04-08T05:21:43.758Z,39.65
2023-04-08T05:24:10.526Z,39.90
2023-04-08T05:26:38.047Z,38.50
2023-04-08T05:29:04.726Z,39.42
2023-04-08T05:31:31.757Z,39.30
2023-04-08T05:33:58.553Z,36.40
2023-04-08T05:36:26.422Z,39.25
2023-04-08T05:38:53.117Z,37.67
2023-04-08T05:41:19.959Z,36.55
2023-04-08T05:43:46.670Z,36.78
2023-04-08T05:46:13.719Z,35.60
2023-04-08T05:48:40.586Z,34.67
2023-04-08T05:51:07.283Z,35.17
2023-04-08T05:53:33.939Z,35.88
2023-04-08T05:56:00.757Z,33.88
2023-04-08T05:58:27.480Z,37.30
2023-04-08T06:00:55.636Z,36.05
2023-04-08T06:03:22.598Z,36.97
2023-04-08T06:05:49.582Z,33.92
2023-04-08T06:08:16.455Z,34.38
2023-04-08T06:10:52.426Z,37.15
2023-04-08T06:13:21.026Z,36.45
2023-04-08T06:15:49.918Z,38.75
2023-04-08T06:18:17.375Z,38.35
2023-04-08T06:20:44.452Z,36.67
2023-04-08T06:23:11.176Z,37.58
2023-04-08T06:25:38.109Z,38.10
2023-04-08T06:28:05.100Z,39.33
2023-04-08T06:30:31.749Z,39.00
2023-04-08T06:32:58.584Z,36.83
2023-04-08T06:35:25.764Z,36.00
2023-04-08T06:37:52.559Z,36.03
2023-04-08T06:40:19.325Z,39.13
2023-04-08T06:42:46.233Z,39.88
2023-04-08T06:45:12.974Z,38.88
2023-04-08T06:47:39.777Z,40.35
2023-04-08T06:50:07.011Z,39.92
2023-04-08T06:52:33.902Z,40.58
2023-04-08T06:55:00.651Z,38.33
2023-04-08T06:57:27.396Z,36.85
2023-04-08T06:59:54.098Z,38.63
2023-04-08T07:02:22.201Z,37.85
2023-04-08T07:04:49.274Z,37.50
2023-04-08T07:07:16.401Z,37.50
2023-04-08T07:09:45.879Z,40.00
2023-04-08T07:12:13.380Z,39.55
2023-04-08T07:14:40.434Z,37.83
2023-04-08T07:17:07.232Z,38.22
2023-04-08T07:19:34.125Z,38.53
2023-04-08T07:22:00.780Z,39.05
2023-04-08T07:24:27.589Z,39.25
2023-04-08T07:26:56.216Z,38.90
2023-04-08T07:29:23.234Z,36.90
2023-04-08T07:31:49.936Z,37.00
2023-04-08T07:34:16.701Z,37.13
2023-04-08T07:36:43.418Z,36.83
2023-04-08T07:39:10.435Z,37.28
2023-04-08T07:41:37.133Z,36.55
2023-04-08T07:44:03.822Z,35.60
2023-04-08T07:46:31.591Z,35.85
2023-04-08T07:48:58.529Z,37.20
2023-04-08T07:51:25.256Z,35.75
2023-04-08T07:53:52.056Z,35.67
2023-04-08T07:56:18.865Z,37.22
2023-04-08T07:58:46.824Z,37.53
2023-04-08T08:01:21.645Z,37.97
2023-04-08T08:03:53.258Z,37.28
2023-04-08T08:06:20.908Z,37.58
2023-04-08T08:08:47.794Z,37.90
2023-04-08T08:11:14.618Z,37.83
2023-04-08T08:13:41.384Z,38.05
2023-04-08T08:16:11.254Z,38.45
2023-04-08T08:18:40.096Z,40.15
2023-04-08T08:21:07.656Z,40.35
2023-04-08T08:23:34.465Z,39.88
2023-04-08T08:26:06.915Z,40.92
2023-04-08T08:28:34.035Z,37.03
2023-04-08T08:31:01.167Z,39.22
2023-04-08T08:33:27.981Z,39.70
2023-04-08T08:35:55.638Z,39.10
2023-04-08T08:38:22.365Z,39.42
2023-04-08T08:40:55.065Z,39.33
2023-04-08T08:43:22.464Z,38.13
2023-04-08T08:45:49.213Z,37.13
2023-04-08T08:48:15.938Z,35.78
2023-04-08T08:50:42.674Z,36.30
2023-04-08T08:53:09.446Z,35.17
2023-04-08T08:56:00.025Z,37.05
2023-04-08T08:58:26.018Z,35.40
2023-04-08T09:00:52.732Z,35.08
2023-04-08T09:03:21.347Z,34.53
2023-04-08T09:06:01.737Z,32.25
2023-04-08T09:08:32.119Z,33.63
2023-04-08T09:11:31.163Z,33.30
2023-04-08T09:13:58.063Z,31.45
2023-04-08T09:16:24.887Z,31.90
2023-04-08T09:18:52.407Z,29.80
2023-04-08T09:21:24.797Z,28.65
2023-04-08T09:23:53.029Z,27.83
2023-04-08T09:26:24.521Z,26.85
2023-04-08T09:28:58.838Z,26.50
2023-04-08T09:31:31.495Z,26.98
2023-04-08T09:34:10.748Z,26.08
2023-04-08T09:36:37.969Z,24.98
2023-04-08T09:39:05.320Z,27.00
2023-04-08T09:41:35.480Z,25.25
2023-04-08T09:44:04.960Z,24.30
2023-04-08T09:46:49.436Z,22.15
2023-04-08T09:49:28.075Z,22.05
2023-04-08T09:52:16.132Z,22.35
2023-04-08T09:55:01.870Z,23.27
2023-04-08T09:57:37.525Z,22.25
2023-04-08T10:00:09.698Z,23.60
2023-04-08T10:02:59.674Z,23.02
2023-04-08T10:05:27.886Z,23.05
2023-04-08T10:07:57.263Z,22.38
2023-04-08T10:10:24.630Z,24.15
2023-04-08T10:12:51.946Z,22.90
2023-04-08T10:15:34.754Z,23.50
2023-04-08T10:18:08.013Z,24.10
2023-04-08T10:20:34.966Z,26.23
2023-04-08T10:23:08.226Z,27.08
2023-04-08T10:25:42.592Z,27.08
2023-04-08T10:28:12.393Z,28.55
2023-04-08T10:30:57.624Z,29.00
2023-04-08T10:33:30.241Z,29.15
2023-04-08T10:36:03.243Z,26.48
2023-04-08T10:38:30.386Z,25.17
2023-04-08T10:40:57.176Z,25.98
2023-04-08T10:43:24.208Z,25.70
2023-04-08T10:45:53.896Z,24.08
2023-04-08T10:48:25.360Z,24.83
2023-04-08T10:50:59.721Z,24.30
2023-04-08T10:53:29.244Z,23.73
2023-04-08T10:56:03.922Z,23.10
2023-04-08T10:58:30.748Z,23.55
2023-04-08T11:01:04.390Z,24.20
2023-04-08T11:03:37.175Z,22.85
2023-04-08T11:06:04.554Z,23.13
2023-04-08T11:08:36.782Z,22.60
2023-04-08T11:11:08.760Z,22.65
2023-04-08T11:13:51.184Z,23.27
2023-04-08T11:16:22.820Z,21.90
2023-04-08T11:18:51.290Z,20.33
2023-04-08T11:21:18.130Z,20.80
2023-04-08T11:23:44.891Z,20.02
2023-04-08T11:26:12.034Z,18.88
2023-04-08T11:28:39.218Z,19.30
2023-04-08T11:31:06.306Z,18.42
2023-04-08T11:33:33.411Z,18.55
2023-04-08T11:36:04.328Z,17.45
2023-04-08T11:38:31.204Z,16.75
2023-04-08T11:40:59.373Z,17.50
2023-04-08T11:43:27.369Z,15.73
2023-04-08T11:45:54.207Z,15.15
2023-04-08T11:48:21.232Z,15.55
2023-04-08T11:50:47.943Z,14.02
2023-04-08T11:53:22.273Z,14.77
2023-04-08T11:55:49.252Z,14.02
2023-04-08T11:58:16.348Z,13.77
2023-04-08T12:00:43.844Z,15.02
2023-04-08T12:03:11.377Z,14.18
2023-04-08T12:05:38.383Z,13.48
2023-04-08T12:08:05.174Z,12.55
2023-04-08T12:10:31.963Z,13.23
2023-04-08T12:12:58.695Z,13.55
2023-04-08T12:15:25.496Z,14.20
2023-04-08T12:17:52.235Z,13.55
2023-04-08T12:20:19.018Z,13.13
2023-04-08T12:22:45.855Z,12.98
2023-04-08T12:25:12.573Z,13.57
2023-04-08T12:27:39.320Z,12.60
2023-04-08T12:30:06.528Z,12.13
2023-04-08T12:32:33.627Z,13.07
2023-04-08T12:35:00.566Z,12.98
2023-04-08T12:37:27.971Z,12.55
2023-04-08T12:39:54.686Z,12.45
2023-04-08T12:42:21.623Z,12.48
2023-04-08T12:44:48.347Z,12.75
2023-04-08T12:47:15.154Z,12.27
2023-04-08T12:49:49.550Z,12.90
2023-04-08T12:52:17.510Z,14.40
2023-04-08T12:54:44.672Z,12.38
2023-04-08T12:57:11.828Z,12.70
2023-04-08T12:59:39.933Z,12.55
2023-04-08T13:02:07.899Z,11.82
2023-04-08T13:04:35.302Z,13.75
2023-04-08T13:07:02.445Z,13.68
2023-04-08T13:09:30.620Z,13.80
2023-04-08T13:11:58.197Z,12.80
2023-04-08T13:14:25.388Z,12.65
2023-04-08T13:16:52.436Z,12.70
2023-04-08T13:19:19.323Z,12.10
2023-04-08T13:21:46.403Z,12.82
2023-04-08T13:24:13.275Z,11.90
2023-04-08T13:26:40.360Z,12.60
2023-04-08T13:29:07.215Z,12.45
2023-04-08T13:31:33.963Z,12.15
2023-04-08T13:34:00.749Z,13.48
2023-04-08T13:36:31.548Z,13.07
2023-04-08T13:38:58.496Z,13.45
2023-04-08T13:41:25.465Z,13.68
2023-04-08T13:43:52.258Z,13.20
2023-04-08T13:46:19.112Z,11.93
2023-04-08T13:48:46.276Z,13.23
2023-04-08T13:51:13.129Z,13.70
2023-04-08T13:53:39.777Z,13.23
2023-04-08T13:56:06.736Z,12.90
2023-04-08T13:58:33.549Z,13.13
2023-04-08T14:01:00.285Z,13.30
2023-04-08T14:03:27.964Z,12.85
2023-04-08T14:05:54.833Z,13.30
2023-04-08T14:08:25.456Z,12.80
2023-04-08T14:10:53.494Z,12.77
2023-04-08T14:13:20.415Z,13.52
2023-04-08T14:15:48.130Z,13.40
2023-04-08T14:18:17.498Z,12.27
2023-04-08T14:20:44.370Z,13.27
2023-04-08T14:23:13.344Z,12.75
2023-04-08T14:25:40.140Z,13.20
2023-04-08T14:28:07.218Z,13.27
2023-04-08T14:30:35.946Z,12.55
2023-04-08T14:33:02.920Z,12.88
2023-04-08T14:35:29.672Z,13.13
2023-04-08T14:37:56.766Z,13.65
2023-04-08T14:40:23.658Z,12.85
2023-04-08T14:42:50.422Z,13.23
2023-04-08T14:45:17.349Z,13.00
2023-04-08T14:47:44.061Z,13.55
2023-04-08T14:50:11.070Z,12.98
2023-04-08T14:52:37.834Z,13.27
2023-04-08T14:55:04.968Z,12.82
2023-04-08T14:57:31.980Z,12.57
2023-04-08T14:59:59.405Z,13.05
2023-04-08T15:02:26.217Z,12.75
2023-04-08T15:04:53.102Z,12.25
2023-04-08T15:07:19.998Z,12.48
2023-04-08T15:09:46.689Z,12.80
2023-04-08T15:12:13.839Z,13.70
2023-04-08T15:14:40.682Z,12.80
2023-04-08T15:17:07.409Z,13.10
2023-04-08T15:19:34.070Z,13.43
2023-04-08T15:22:00.793Z,13.23
2023-04-08T15:24:27.513Z,13.32
2023-04-08T15:26:54.188Z,13.23
2023-04-08T15:29:24.037Z,12.95
2023-04-08T15:31:50.773Z,13.57
2023-04-08T15:34:17.477Z,13.15
2023-04-08T15:36:45.356Z,13.35
2023-04-08T15:39:12.295Z,12.93
2023-04-08T15:41:39.049Z,12.65
2023-04-08T15:44:05.812Z,12.20
2023-04-08T15:46:32.658Z,12.30
2023-04-08T15:49:01.276Z,13.02
2023-04-08T15:51:28.694Z,13.98
2023-04-08T15:53:55.475Z,13.50
2023-04-08T15:56:22.399Z,14.65
2023-04-08T15:58:49.433Z,14.23
2023-04-08T16:01:18.599Z,14.25
2023-04-08T16:03:45.813Z,12.65
2023-04-08T16:06:12.601Z,14.23
2023-04-08T16:08:40.557Z,14.45
2023-04-08T16:11:08.076Z,14.80
2023-04-08T16:13:35.133Z,15.15
2023-04-08T16:16:02.727Z,13.85
2023-04-08T16:18:30.146Z,14.00
2023-04-08T16:20:57.141Z,15.15
2023-04-08T16:23:23.910Z,14.30
2023-04-08T16:25:50.668Z,14.45
2023-04-08T16:28:18.113Z,15.50
2023-04-08T16:30:46.329Z,15.10
2023-04-08T16:33:13.224Z,15.20
2023-04-08T16:35:40.254Z,13.70
2023-04-08T16:38:07.128Z,14.80
2023-04-08T16:40:35.061Z,15.32
2023-04-08T16:43:04.000Z,15.38
2023-04-08T16:45:32.495Z,15.00
2023-04-08T16:48:00.344Z,14.65
2023-04-08T16:50:28.344Z,16.10
2023-04-08T16:52:55.329Z,15.55
2023-04-08T16:55:22.215Z,16.50
2023-04-08T16:57:49.110Z,17.48
2023-04-08T17:00:17.496Z,16.02
2023-04-08T17:02:47.323Z,15.50
2023-04-08T17:05:14.381Z,15.30
2023-04-08T17:07:41.078Z,14.93
2023-04-08T17:10:08.565Z,15.40
2023-04-08T17:12:36.290Z,15.35
2023-04-08T17:15:03.507Z,15.07
2023-04-08T17:17:30.378Z,14.95
2023-04-08T17:19:57.124Z,14.77
2023-04-08T17:22:23.843Z,15.80
2023-04-08T17:24:50.554Z,15.25
2023-04-08T17:27:17.337Z,15.25
2023-04-08T17:29:44.539Z,15.20
2023-04-08T17:32:12.526Z,15.00
2023-04-08T17:34:40.708Z,14.65
2023-04-08T17:37:09.239Z,14.27
2023-04-08T17:39:40.544Z,14.35
2023-04-08T17:42:08.352Z,13.80
2023-04-08T17:44:35.174Z,13.30
2023-04-08T17:47:02.368Z,13.80
2023-04-08T17:49:29.781Z,12.77
2023-04-08T17:51:56.675Z,12.70
2023-04-08T17:54:24.305Z,13.38
2023-04-08T17:56:51.113Z,13.43
2023-04-08T17:59:17.862Z,13.40
2023-04-08T18:01:44.752Z,13.18
2023-04-08T18:04:12.523Z,11.88
2023-04-08T18:06:39.573Z,13.38
2023-04-08T18:09:06.260Z,13.82
2023-04-08T18:11:32.936Z,13.45
2023-04-08T18:13:59.642Z,14.25
2023-04-08T18:16:26.373Z,15.23
2023-04-08T18:18:53.159Z,15.23
2023-04-08T18:21:21.124Z,15.68
2023-04-08T18:23:49.930Z,16.20
2023-04-08T18:26:17.085Z,15.90
2023-04-08T18:28:43.795Z,15.48
2023-04-08T18:31:10.602Z,15.27
2023-04-08T18:33:39.025Z,14.50
2023-04-08T18:36:10.183Z,13.85
2023-04-08T18:38:37.346Z,14.27
2023-04-08T18:41:04.718Z,13.73
2023-04-08T18:43:32.107Z,12.55
2023-04-08T18:45:59.331Z,12.88
2023-04-08T18:48:26.584Z,13.82
2023-04-08T18:50:53.585Z,12.15
2023-04-08T18:53:20.481Z,12.45
2023-04-08T18:55:47.148Z,12.75
2023-04-08T18:58:13.967Z,13.45
2023-04-08T19:00:41.574Z,13.02
2023-04-08T19:03:10.061Z,12.70
2023-04-08T19:05:37.631Z,13.25
2023-04-08T19:08:05.006Z,12.65
2023-04-08T19:10:33.441Z,13.35
2023-04-08T19:13:00.785Z,12.45
2023-04-08T19:15:28.854Z,13.13
2023-04-08T19:17:56.464Z,13.32
2023-04-08T19:20:23.458Z,13.15
2023-04-08T19:22:50.380Z,13.77
2023-04-08T19:25:17.565Z,13.70
2023-04-08T19:27:45.896Z,13.80
2023-04-08T19:30:13.260Z,14.27
2023-04-08T19:32:40.157Z,14.25
2023-04-08T19:35:07.586Z,13.98
2023-04-08T19:37:34.683Z,14.60
2023-04-08T19:40:01.415Z,14.75
2023-04-08T19:42:28.108Z,14.23
2023-04-08T19:44:55.217Z,15.88
2023-04-08T19:47:22.067Z,16.33
2023-04-08T19:49:48.845Z,15.57
2023-04-08T19:52:15.574Z,16.15
2023-04-08T19:54:43.358Z,15.43
2023-04-08T19:57:10.979Z,16.05
2023-04-08T19:59:38.167Z,15.73
2023-04-08T20:02:05.112Z,16.00
2023-04-08T20:04:32.666Z,16.20
2023-04-08T20:07:03.555Z,17.10
2023-04-08T20:09:32.371Z,17.92
2023-04-08T20:12:04.554Z,17.25
2023-04-08T20:14:32.866Z,17.88
2023-04-08T20:17:00.140Z,17.02
2023-04-08T20:19:27.056Z,17.95
2023-04-08T20:21:54.098Z,19.27
2023-04-08T20:24:21.622Z,19.55
2023-04-08T20:26:48.491Z,18.70
2023-04-08T20:29:15.460Z,19.35
2023-04-08T20:31:43.467Z,18.23
2023-04-08T20:34:10.636Z,18.17
2023-04-08T20:36:38.186Z,19.67
2023-04-08T20:39:05.353Z,19.10
2023-04-08T20:41:32.082Z,19.58
2023-04-08T20:43:58.775Z,19.50
2023-04-08T20:46:25.964Z,19.48
2023-04-08T20:48:52.869Z,19.58
2023-04-08T20:51:19.996Z,19.35
2023-04-08T20:53:46.703Z,20.10
2023-04-08T20:56:13.406Z,19.92
2023-04-08T20:58:40.683Z,20.08
2023-04-08T21:01:07.820Z,20.42
2023-04-08T21:03:34.661Z,20.58
2023-04-08T21:06:01.677Z,22.15
2023-04-08T21:08:28.393Z,21.83
2023-04-08T21:10:55.455Z,22.52
2023-04-08T21:13:22.578Z,23.63
2023-04-08T21:15:49.359Z,22.67
2023-04-08T21:18:16.095Z,23.88
2023-04-08T21:20:42.818Z,24.02
2023-04-08T21:23:09.574Z,22.95
2023-04-08T21:25:36.311Z,23.50
2023-04-08T21:28:03.039Z,23.58
2023-04-08T21:30:29.755Z,24.13
2023-04-08T21:32:56.722Z,24.65
2023-04-08T21:35:23.906Z,24.88
2023-04-08T21:37:51.025Z,25.45
2023-04-08T21:40:18.063Z,26.65
2023-04-08T21:42:45.525Z,25.42
2023-04-08T21:45:12.286Z,26.10
2023-04-08T21:47:39.298Z,26.80
2023-04-08T21:50:06.946Z,27.45
2023-04-08T21:52:33.802Z,27.45
2023-04-08T21:55:01.138Z,27.40
2023-04-08T21:57:28.011Z,29.30
2023-04-08T21:59:54.735Z,28.67
2023-04-08T22:02:22.031Z,28.55
2023-04-08T22:04:48.994Z,29.63
2023-04-08T22:07:16.048Z,29.63
2023-04-08T22:09:42.783Z,29.92
2023-04-08T22:12:10.816Z,30.58
2023-04-08T22:14:37.926Z,30.20
2023-04-08T22:17:04.841Z,29.55
2023-04-08T22:19:31.780Z,30.15
2023-04-08T22:21:58.439Z,30.63
2023-04-08T22:24:25.283Z,30.77
2023-04-08T22:26:53.388Z,31.13
2023-04-08T22:29:20.263Z,31.73
2023-04-08T22:31:46.936Z,32.42
2023-04-08T22:34:13.647Z,31.15
2023-04-08T22:36:40.429Z,32.47
2023-04-08T22:39:07.199Z,31.05
2023-04-08T22:41:33.883Z,31.52
2023-04-08T22:44:00.594Z,32.72
2023-04-08T22:46:27.278Z,32.20
2023-04-08T22:48:54.438Z,32.42
2023-04-08T22:51:21.328Z,32.28
2023-04-08T22:53:48.456Z,34.15
2023-04-08T22:56:15.355Z,32.55
2023-04-08T22:58:42.136Z,32.80
2023-04-08T23:01:12.569Z,33.05
2023-04-08T23:03:39.393Z,31.85
2023-04-08T23:06:06.339Z,32.08
2023-04-08T23:08:33.078Z,32.47
2023-04-08T23:10:59.814Z,33.33
2023-04-08T23:13:27.669Z,32.40
2023-04-08T23:15:54.398Z,33.13
2023-04-08T23:18:21.274Z,32.38
2023-04-08T23:20:55.639Z,31.33
2023-04-08T23:23:26.277Z,31.10
2023-04-08T23:25:55.550Z,31.23
2023-04-08T23:28:22.612Z,30.75
2023-04-08T23:30:49.755Z,32.50
2023-04-08T23:33:16.596Z,30.83
2023-04-08T23:35:43.340Z,30.60
2023-04-08T23:38:10.267Z,30.60
2023-04-08T23:40:37.135Z,30.75
2023-04-08T23:43:03.959Z,32.33
2023-04-08T23:45:30.827Z,31.23
2023-04-08T23:47:57.536Z,30.05
2023-04-08T23:50:24.644Z,31.83
2023-04-08T23:52:51.343Z,30.42
2023-04-08T23:55:18.079Z,31.55
2023-04-08T23:57:44.863Z,31.20
